createdAt,value
2022-10-04T00:05:01.258Z,101134.78
2022-10-04T00:15:02.493Z,101127.91
2022-10-04T00:25:03.828Z,101115.69
2022-10-04T00:35:05.131Z,101120.72
2022-10-04T00:45:06.445Z,101119.78
2022-10-04T00:55:07.792Z,101112.03
2022-10-04T01:05:10.750Z,101111.19
2022-10-04T01:15:12.060Z,101109.44
2022-10-04T01:25:13.355Z,101097.22
2022-10-04T01:35:14.670Z,101083.28
2022-10-04T01:45:15.972Z,101066.81
2022-10-04T01:55:17.301Z,101047.72
2022-10-04T02:05:18.587Z,101048.44
2022-10-04T02:15:20.248Z,101049.44
2022-10-04T02:25:21.613Z,101047.69
2022-10-04T02:35:22.910Z,101046.06
2022-10-04T02:45:24.238Z,101026.94
2022-10-04T02:55:27.872Z,101024.22
2022-10-04T03:05:29.182Z,101029.47
2022-10-04T03:15:30.478Z,101014.69
2022-10-04T03:25:31.763Z,101010.44
2022-10-04T03:35:33.067Z,101011.16
2022-10-04T03:45:35.274Z,101005.13
2022-10-04T03:55:36.689Z,101012.91
2022-10-04T04:05:37.998Z,101025.00
2022-10-04T04:15:43.362Z,101024.09
2022-10-04T04:25:46.002Z,101033.50
2022-10-04T04:35:47.379Z,101036.06
2022-10-04T04:46:02.938Z,101023.91
2022-10-04T04:56:12.073Z,101033.25
2022-10-04T05:06:14.693Z,101040.22
2022-10-04T05:16:16.053Z,101039.34
2022-10-04T05:26:17.393Z,101045.38
2022-10-04T05:36:18.729Z,101066.31
2022-10-04T05:46:20.000Z,101049.81
2022-10-04T05:56:21.365Z,101045.59
2022-10-04T06:06:22.670Z,101033.72
2022-10-04T06:16:24.004Z,101025.25
2022-10-04T06:26:25.770Z,101033.22
2022-10-04T06:36:27.168Z,101040.22
2022-10-04T06:46:28.553Z,101057.63
2022-10-04T06:56:29.880Z,101061.97
2022-10-04T07:06:31.175Z,101075.09
2022-10-04T07:16:32.492Z,101071.78
2022-10-04T07:26:33.718Z,101065.84
2022-10-04T07:36:34.935Z,101080.69
2022-10-04T07:46:37.242Z,101074.56
2022-10-04T07:56:38.564Z,101066.94
2022-10-04T08:06:40.012Z,101070.47
2022-10-04T08:16:41.815Z,101071.34
2022-10-04T08:26:43.732Z,101081.00
2022-10-04T08:36:45.738Z,101099.28
2022-10-04T08:46:47.651Z,101086.22
2022-10-04T08:56:49.593Z,101066.19
2022-10-04T09:06:50.967Z,101066.91
2022-10-04T09:16:52.276Z,101079.06
2022-10-04T09:26:53.583Z,101067.63
2022-10-04T09:36:55.276Z,101077.97
2022-10-04T09:46:57.520Z,101075.28
2022-10-04T09:56:59.401Z,101077.16
2022-10-04T10:07:00.699Z,101065.75
2022-10-04T10:17:02.207Z,101065.22
2022-10-04T10:27:03.635Z,101064.28
2022-10-04T10:37:04.969Z,101061.31
2022-10-04T10:47:06.365Z,101050.09
2022-10-04T10:57:07.684Z,101027.22
2022-10-04T11:07:09.003Z,101017.47
2022-10-04T11:17:10.395Z,101011.59
2022-10-04T11:27:12.100Z,100999.41
2022-10-04T11:37:13.897Z,100999.03
2022-10-04T11:47:16.030Z,101009.91
2022-10-04T11:57:17.338Z,101001.16
2022-10-04T12:07:20.647Z,100987.25
2022-10-04T12:17:21.883Z,100977.59
2022-10-04T12:27:23.701Z,100961.34
2022-10-04T12:37:26.008Z,100963.66
2022-10-04T12:47:27.358Z,100957.81
2022-10-04T12:57:28.736Z,100944.41
2022-10-04T13:07:29.971Z,100924.72
2022-10-04T13:17:35.703Z,100924.50
2022-10-04T13:27:38.493Z,100919.91
2022-10-04T13:37:39.882Z,100917.53
2022-10-04T13:47:41.263Z,100903.84
2022-10-04T13:57:43.162Z,100899.63
2022-10-04T14:07:44.489Z,100886.53
2022-10-04T14:17:46.432Z,100866.50
2022-10-04T14:27:47.767Z,100868.66
2022-10-04T14:37:49.355Z,100863.38
2022-10-04T14:47:50.654Z,100866.22
2022-10-04T14:57:51.882Z,100865.66
2022-10-04T15:07:53.121Z,100864.75
2022-10-04T15:17:54.435Z,100843.00
2022-10-04T15:27:55.786Z,100829.34
2022-10-04T15:37:57.167Z,100836.13
2022-10-04T15:47:58.540Z,100820.03
2022-10-04T15:58:02.753Z,100809.88
2022-10-04T16:08:04.250Z,100819.31
2022-10-04T16:18:05.774Z,100831.81
2022-10-04T16:28:08.094Z,100820.50
2022-10-04T16:38:09.461Z,100830.22
2022-10-04T16:48:10.783Z,100822.91
2022-10-04T16:58:12.090Z,100799.75
2022-10-04T17:08:13.421Z,100807.41
2022-10-04T17:18:14.736Z,100820.56
2022-10-04T17:28:16.015Z,100829.56
2022-10-04T17:38:18.446Z,100837.91
2022-10-04T17:48:39.135Z,100839.16
2022-10-04T17:58:41.236Z,100843.72
2022-10-04T18:08:43.140Z,100834.34
2022-10-04T18:18:45.180Z,100842.41
2022-10-04T18:28:48.102Z,100844.38
2022-10-04T18:38:50.054Z,100848.88
2022-10-04T18:48:54.545Z,100850.78
2022-10-04T18:59:14.652Z,100850.91
2022-10-04T19:09:16.568Z,100862.34
2022-10-04T19:19:18.256Z,100881.75
2022-10-04T19:29:20.042Z,100889.69
2022-10-04T19:39:21.996Z,100903.69
2022-10-04T19:49:23.701Z,100906.38
2022-10-04T19:59:25.031Z,100920.38
2022-10-04T20:09:26.887Z,100918.75
2022-10-04T20:19:28.275Z,100920.50
2022-10-04T20:29:30.712Z,100933.59
2022-10-04T20:39:32.035Z,100931.91
2022-10-04T20:49:33.410Z,100945.03
2022-10-04T20:59:34.746Z,100958.13
2022-10-04T21:09:36.091Z,100970.31
2022-10-04T21:19:38.900Z,100947.69
2022-10-04T21:29:40.244Z,100949.47
2022-10-04T21:39:41.569Z,100948.59
2022-10-04T21:49:42.872Z,100941.66
2022-10-04T21:59:44.193Z,100946.03
2022-10-04T22:09:45.505Z,100944.28
2022-10-04T22:19:46.838Z,100920.78
2022-10-04T22:29:48.147Z,100916.44
2022-10-04T22:39:49.517Z,100905.13
2022-10-04T22:49:52.633Z,100905.13
2022-10-04T22:59:53.947Z,100899.03
2022-10-04T23:09:55.257Z,100895.53
2022-10-04T23:19:56.690Z,100892.94
2022-10-04T23:29:57.995Z,100887.69
2022-10-04T23:39:59.316Z,100885.09
2022-10-04T23:50:00.632Z,100880.75
